Time;durP1;ratioP1;P1;durP2;ratioP2;P2;SDS_P1;SDS_P2;PMS_P1;PMS_P2;Temp;Humidity;BMP_temperature;BMP_pressure;BME280_temperature;BME280_humidity;BME280_pressure;Samples;Min_cycle;Max_cycle;Signal;HPM_P1;HPM_P2
2023/12/01 00:02:24;;;;;;;102.82;55.38;;;;;;;;;;4988028;28;25061;-74
2023/12/01 00:04:51;;;;;;;104.00;52.55;;;;;;;;;;5002372;28;25079;-74
2023/12/01 00:07:17;;;;;;;111.53;54.05;;;;;;;;;;4988687;28;25052;-75
2023/12/01 00:09:43;;;;;;;105.78;51.35;;;;;;;;;;4984733;28;25077;-75
2023/12/01 00:12:09;;;;;;;107.85;52.60;;;;;;;;;;4987502;28;25136;-74
2023/12/01 00:14:35;;;;;;;92.07;50.72;;;;;;;;;;4989181;28;25142;-73
2023/12/01 00:17:00;;;;;;;100.88;51.47;;;;;;;;;;4997987;28;25063;-73
2023/12/01 00:19:27;;;;;;;93.18;51.22;;;;;;;;;;4988073;28;25118;-76
2023/12/01 00:21:53;;;;;;;90.53;49.88;;;;;;;;;;4996002;28;25067;-74
2023/12/01 00:24:19;;;;;;;94.10;51.20;;;;;;;;;;4990611;28;25076;-74
2023/12/01 00:26:45;;;;;;;91.47;51.75;;;;;;;;;;4992067;28;25153;-75
2023/12/01 00:29:11;;;;;;;81.10;47.15;;;;;;;;;;4986402;28;25068;-75
2023/12/01 00:31:37;;;;;;;83.05;46.88;;;;;;;;;;4987000;28;25074;-74
2023/12/01 00:34:04;;;;;;;78.65;45.08;;;;;;;;;;4986499;28;25076;-75
2023/12/01 00:36:31;;;;;;;90.57;51.25;;;;;;;;;;4989826;28;25100;-74
2023/12/01 00:38:57;;;;;;;83.05;48.00;;;;;;;;;;4989124;28;25051;-72
2023/12/01 00:41:23;;;;;;;89.45;49.40;;;;;;;;;;4985285;28;25148;-75
2023/12/01 00:43:49;;;;;;;93.78;52.03;;;;;;;;;;4986430;28;25139;-75
2023/12/01 00:46:15;;;;;;;93.22;51.10;;;;;;;;;;4987839;28;25095;-72
2023/12/01 00:48:41;;;;;;;84.60;49.47;;;;;;;;;;4987181;28;25083;-74
2023/12/01 00:51:14;;;;;;;90.75;48.42;;;;;;;;;;4985907;28;25075;-73
2023/12/01 00:53:40;;;;;;;88.88;48.33;;;;;;;;;;4990287;28;25059;-73
2023/12/01 00:56:07;;;;;;;96.20;51.33;;;;;;;;;;4989280;28;25139;-74
2023/12/01 00:58:33;;;;;;;101.85;51.03;;;;;;;;;;4986842;28;25066;-73
2023/12/01 01:00:59;;;;;;;93.32;51.30;;;;;;;;;;4981576;28;25108;-73
2023/12/01 01:03:25;;;;;;;102.95;54.25;;;;;;;;;;4987632;28;25062;-75
2023/12/01 01:05:51;;;;;;;126.40;61.00;;;;;;;;;;4991513;28;25169;-74
2023/12/01 01:08:17;;;;;;;117.93;56.17;;;;;;;;;;4997971;28;25105;-73
2023/12/01 01:10:43;;;;;;;112.07;55.05;;;;;;;;;;4995254;28;25093;-74
2023/12/01 01:13:10;;;;;;;126.38;60.20;;;;;;;;;;4998626;28;25076;-74
2023/12/01 01:15:36;;;;;;;119.47;54.08;;;;;;;;;;4996946;28;25096;-73
2023/12/01 01:18:02;;;;;;;143.88;62.17;;;;;;;;;;4990656;28;25141;-72
2023/12/01 01:20:28;;;;;;;117.40;57.83;;;;;;;;;;4998291;28;25107;-73
2023/12/01 01:22:54;;;;;;;110.07;55.25;;;;;;;;;;4993705;28;25107;-74
2023/12/01 01:25:20;;;;;;;111.80;56.30;;;;;;;;;;4985125;28;25082;-74
2023/12/01 01:27:46;;;;;;;138.18;63.67;;;;;;;;;;4988758;28;25076;-73
2023/12/01 01:30:13;;;;;;;126.90;58.45;;;;;;;;;;4996901;28;25100;-74
2023/12/01 01:32:39;;;;;;;150.77;60.47;;;;;;;;;;4994697;28;25066;-73
2023/12/01 01:35:05;;;;;;;147.80;61.80;;;;;;;;;;4998426;28;25090;-75
2023/12/01 01:37:31;;;;;;;148.73;63.40;;;;;;;;;;4999203;28;25098;-73
2023/12/01 01:39:57;;;;;;;133.10;58.95;;;;;;;;;;5004627;28;25068;-74
2023/12/01 01:42:24;;;;;;;132.55;57.50;;;;;;;;;;5000251;28;25074;-74
2023/12/01 01:44:50;;;;;;;147.73;60.65;;;;;;;;;;4995782;28;25080;-72
2023/12/01 01:47:16;;;;;;;144.25;58.50;;;;;;;;;;4990133;28;25146;-77
2023/12/01 01:49:42;;;;;;;133.70;56.28;;;;;;;;;;4990280;28;25090;-76
2023/12/01 01:52:10;;;;;;;135.32;59.78;;;;;;;;;;4983166;28;25101;-76
2023/12/01 01:54:36;;;;;;;125.70;54.33;;;;;;;;;;4990225;28;25131;-74
2023/12/01 01:57:03;;;;;;;105.95;48.40;;;;;;;;;;5004835;28;25088;-75
2023/12/01 01:59:29;;;;;;;120.13;47.67;;;;;;;;;;5003563;28;25066;-71
2023/12/01 02:01:56;;;;;;;142.18;54.58;;;;;;;;;;4992713;28;25082;-74
2023/12/01 02:04:22;;;;;;;144.60;56.13;;;;;;;;;;4995166;28;25070;-75
2023/12/01 02:06:49;;;;;;;136.15;53.60;;;;;;;;;;4997241;28;25088;-76
2023/12/01 02:09:15;;;;;;;146.18;57.85;;;;;;;;;;4985791;28;25069;-74
2023/12/01 02:11:41;;;;;;;170.90;62.10;;;;;;;;;;4995114;28;25058;-74
2023/12/01 02:14:07;;;;;;;132.60;55.38;;;;;;;;;;4996904;28;25074;-76
2023/12/01 02:16:33;;;;;;;151.57;56.47;;;;;;;;;;4995094;28;25071;-73
2023/12/01 02:18:59;;;;;;;153.85;55.55;;;;;;;;;;4995443;28;25056;-75
2023/12/01 02:21:26;;;;;;;138.07;49.75;;;;;;;;;;4995560;28;25044;-74
2023/12/01 02:23:53;;;;;;;127.80;52.47;;;;;;;;;;5001424;28;25078;-74
2023/12/01 02:26:19;;;;;;;123.40;50.05;;;;;;;;;;4997904;28;25170;-74
2023/12/01 02:28:45;;;;;;;113.05;49.25;;;;;;;;;;4980842;28;25069;-74
2023/12/01 02:31:11;;;;;;;106.28;45.20;;;;;;;;;;4989348;28;25098;-75
2023/12/01 02:33:38;;;;;;;105.03;44.53;;;;;;;;;;4997381;28;25070;-74
2023/12/01 02:36:06;;;;;;;106.70;44.60;;;;;;;;;;4999958;28;25147;-74
2023/12/01 02:38:33;;;;;;;104.18;45.47;;;;;;;;;;4999254;28;25062;-74
2023/12/01 02:40:59;;;;;;;130.63;49.40;;;;;;;;;;5017203;28;25064;-73
2023/12/01 02:43:25;;;;;;;117.53;48.92;;;;;;;;;;4994992;28;25107;-74
2023/12/01 02:45:51;;;;;;;111.10;48.03;;;;;;;;;;4996175;28;25070;-72
2023/12/01 02:48:17;;;;;;;101.65;43.20;;;;;;;;;;4996219;28;25053;-74
2023/12/01 02:50:45;;;;;;;100.35;45.00;;;;;;;;;;5001107;28;25065;-74
2023/12/01 02:53:11;;;;;;;100.53;41.70;;;;;;;;;;4996814;28;25079;-72
2023/12/01 02:55:37;;;;;;;93.25;43.03;;;;;;;;;;5000109;28;25052;-73
2023/12/01 02:58:03;;;;;;;95.25;42.53;;;;;;;;;;4998759;28;25051;-73
2023/12/01 03:00:29;;;;;;;98.18;42.03;;;;;;;;;;4988526;28;25163;-74
2023/12/01 03:02:55;;;;;;;112.68;45.13;;;;;;;;;;4994931;28;25066;-73
2023/12/01 03:05:22;;;;;;;85.93;38.38;;;;;;;;;;4993395;28;25092;-73
2023/12/01 03:07:49;;;;;;;94.72;40.55;;;;;;;;;;4995086;28;25056;-73
2023/12/01 03:10:15;;;;;;;98.50;40.90;;;;;;;;;;4995723;28;25066;-74
2023/12/01 03:12:42;;;;;;;95.18;40.08;;;;;;;;;;4994730;28;25049;-73
2023/12/01 03:15:09;;;;;;;86.38;39.55;;;;;;;;;;4996029;28;25095;-73
2023/12/01 03:17:35;;;;;;;90.55;43.67;;;;;;;;;;4999313;28;25076;-74
2023/12/01 03:20:07;;;;;;;90.38;41.17;;;;;;;;;;4988817;28;25056;-73
2023/12/01 03:22:33;;;;;;;77.45;37.35;;;;;;;;;;4992664;28;25054;-75
2023/12/01 03:24:59;;;;;;;90.32;39.40;;;;;;;;;;4991336;28;25141;-73
2023/12/01 03:27:25;;;;;;;91.60;39.10;;;;;;;;;;4990263;28;25060;-72
2023/12/01 03:29:54;;;;;;;93.57;40.88;;;;;;;;;;4991192;28;25049;-74
2023/12/01 03:32:21;;;;;;;88.72;36.53;;;;;;;;;;4996815;28;25064;-72
2023/12/01 03:34:47;;;;;;;86.57;36.63;;;;;;;;;;4992432;28;25059;-76
2023/12/01 03:37:13;;;;;;;74.60;34.65;;;;;;;;;;4992235;28;25098;-72
2023/12/01 03:39:38;;;;;;;83.50;37.38;;;;;;;;;;4988802;28;25075;-74
2023/12/01 03:42:05;;;;;;;77.47;35.55;;;;;;;;;;4990276;28;25093;-73
2023/12/01 03:44:32;;;;;;;80.97;36.25;;;;;;;;;;4987463;28;25164;-75
2023/12/01 03:46:58;;;;;;;87.07;37.20;;;;;;;;;;4990435;28;25072;-73
2023/12/01 03:49:24;;;;;;;85.95;36.63;;;;;;;;;;4992809;28;25111;-74
2023/12/01 03:51:52;;;;;;;77.13;34.55;;;;;;;;;;4992687;28;25139;-74
2023/12/01 03:54:19;;;;;;;80.00;36.08;;;;;;;;;;4996688;28;25048;-74
2023/12/01 03:56:45;;;;;;;78.53;35.65;;;;;;;;;;4994546;28;25070;-75
2023/12/01 03:59:11;;;;;;;125.88;42.63;;;;;;;;;;4993117;28;25153;-74
2023/12/01 04:01:38;;;;;;;102.35;41.08;;;;;;;;;;4987021;28;25052;-75
2023/12/01 04:04:05;;;;;;;131.25;46.63;;;;;;;;;;4990458;28;25076;-75
2023/12/01 04:06:32;;;;;;;118.30;43.65;;;;;;;;;;4992412;28;25059;-75
2023/12/01 04:09:04;;;;;;;130.65;44.95;;;;;;;;;;4990850;28;25055;-71
2023/12/01 04:11:32;;;;;;;106.28;45.35;;;;;;;;;;4990911;28;25100;-73
2023/12/01 04:13:58;;;;;;;109.57;46.67;;;;;;;;;;4992131;28;25097;-74
2023/12/01 04:16:24;;;;;;;99.18;43.10;;;;;;;;;;4991492;28;25074;-75
2023/12/01 04:18:50;;;;;;;115.85;45.40;;;;;;;;;;4999813;28;25399;-74
2023/12/01 04:21:16;;;;;;;90.93;42.40;;;;;;;;;;5008991;28;25093;-75
2023/12/01 04:23:42;;;;;;;112.25;45.95;;;;;;;;;;4995520;28;25088;-73
2023/12/01 04:26:10;;;;;;;92.43;42.65;;;;;;;;;;5002288;28;25069;-74
2023/12/01 04:28:36;;;;;;;112.47;46.60;;;;;;;;;;4998424;28;25088;-75
2023/12/01 04:31:05;;;;;;;102.65;44.38;;;;;;;;;;5000521;28;25066;-75
2023/12/01 04:33:31;;;;;;;109.35;48.80;;;;;;;;;;4987994;28;25103;-75
2023/12/01 04:35:57;;;;;;;86.18;40.83;;;;;;;;;;4986029;28;25054;-76
2023/12/01 04:38:22;;;;;;;104.05;45.70;;;;;;;;;;4983677;28;25065;-75
2023/12/01 04:40:50;;;;;;;107.85;45.78;;;;;;;;;;5004534;28;25061;-76
2023/12/01 04:43:17;;;;;;;91.40;42.63;;;;;;;;;;4997866;28;25071;-73
2023/12/01 04:45:43;;;;;;;97.78;45.67;;;;;;;;;;4993014;28;25097;-74
2023/12/01 04:48:09;;;;;;;90.43;42.70;;;;;;;;;;5005015;28;25088;-76
2023/12/01 04:50:40;;;;;;;93.38;45.80;;;;;;;;;;5012219;28;25056;-76
2023/12/01 04:53:07;;;;;;;94.38;46.83;;;;;;;;;;4995074;28;25059;-77
2023/12/01 04:55:33;;;;;;;84.50;41.03;;;;;;;;;;4993554;28;25096;-75
2023/12/01 04:57:59;;;;;;;81.07;36.67;;;;;;;;;;4989241;28;25066;-75
2023/12/01 05:00:25;;;;;;;72.90;36.97;;;;;;;;;;4991435;28;25067;-76
2023/12/01 05:03:02;;;;;;;67.95;36.20;;;;;;;;;;4991673;28;25100;-76
2023/12/01 05:05:29;;;;;;;79.25;38.20;;;;;;;;;;4992165;28;25109;-74
2023/12/01 05:07:58;;;;;;;74.22;35.47;;;;;;;;;;4990141;28;25084;-75
2023/12/01 05:10:25;;;;;;;76.57;38.33;;;;;;;;;;4996307;28;25050;-76
2023/12/01 05:12:54;;;;;;;74.25;37.35;;;;;;;;;;4994113;28;25084;-73
2023/12/01 05:15:21;;;;;;;73.63;35.40;;;;;;;;;;4997456;28;25057;-76
2023/12/01 05:17:49;;;;;;;85.55;41.35;;;;;;;;;;4993887;28;25058;-74
2023/12/01 05:20:15;;;;;;;82.72;37.75;;;;;;;;;;4995627;28;25131;-75
2023/12/01 05:22:48;;;;;;;80.65;37.95;;;;;;;;;;4990101;28;25143;-75
2023/12/01 05:25:15;;;;;;;94.55;42.90;;;;;;;;;;4995230;28;25058;-74
2023/12/01 05:27:45;;;;;;;90.85;43.20;;;;;;;;;;4993683;28;25050;-74
2023/12/01 05:30:15;;;;;;;85.60;40.17;;;;;;;;;;4996994;28;25129;-75
2023/12/01 05:32:42;;;;;;;87.40;40.60;;;;;;;;;;4991638;28;25061;-74
2023/12/01 05:35:10;;;;;;;89.00;40.05;;;;;;;;;;4996398;28;25051;-74
2023/12/01 05:37:37;;;;;;;88.47;39.90;;;;;;;;;;4994414;28;25102;-76
2023/12/01 05:40:03;;;;;;;87.18;40.15;;;;;;;;;;5002533;28;25068;-76
2023/12/01 05:42:29;;;;;;;86.22;40.40;;;;;;;;;;4990266;28;25047;-75
2023/12/01 05:44:55;;;;;;;85.85;39.72;;;;;;;;;;4988510;28;25071;-74
2023/12/01 05:47:22;;;;;;;86.40;37.55;;;;;;;;;;4993226;28;25069;-77
2023/12/01 05:49:49;;;;;;;90.05;40.28;;;;;;;;;;4991675;28;25058;-75
2023/12/01 05:52:15;;;;;;;89.85;39.10;;;;;;;;;;4990681;28;25063;-76
2023/12/01 05:54:41;;;;;;;92.57;39.85;;;;;;;;;;4999695;28;25064;-77
2023/12/01 05:57:07;;;;;;;84.15;38.58;;;;;;;;;;4992398;28;25067;-76
2023/12/01 05:59:34;;;;;;;91.25;40.15;;;;;;;;;;4994665;28;25132;-75
2023/12/01 06:02:10;;;;;;;97.55;40.70;;;;;;;;;;4992786;28;25068;-77
2023/12/01 06:04:36;;;;;;;94.18;40.00;;;;;;;;;;4989904;28;25069;-74
2023/12/01 06:07:03;;;;;;;93.15;40.35;;;;;;;;;;4998881;28;25086;-76
2023/12/01 06:09:29;;;;;;;90.45;41.58;;;;;;;;;;4993624;28;25158;-76
2023/12/01 06:11:55;;;;;;;92.22;38.47;;;;;;;;;;4993556;28;25067;-75
2023/12/01 06:14:22;;;;;;;90.55;41.40;;;;;;;;;;4992816;28;25074;-76
2023/12/01 06:16:48;;;;;;;87.00;38.90;;;;;;;;;;4992955;28;25082;-76
2023/12/01 06:19:14;;;;;;;83.40;37.35;;;;;;;;;;4995736;28;25059;-76
2023/12/01 06:21:40;;;;;;;86.78;38.25;;;;;;;;;;4985220;28;25084;-75
2023/12/01 06:24:06;;;;;;;83.25;36.63;;;;;;;;;;4990782;28;25079;-79
2023/12/01 06:26:32;;;;;;;82.85;37.80;;;;;;;;;;4990679;28;25103;-75
2023/12/01 06:28:58;;;;;;;87.65;36.30;;;;;;;;;;4991201;28;25057;-75
2023/12/01 06:31:24;;;;;;;79.88;34.15;;;;;;;;;;4998284;28;25074;-76
2023/12/01 06:33:51;;;;;;;81.10;37.25;;;;;;;;;;4998365;28;25156;-75
2023/12/01 06:36:17;;;;;;;85.03;38.05;;;;;;;;;;5006460;28;25102;-73
2023/12/01 06:38:42;;;;;;;80.15;35.38;;;;;;;;;;5004027;28;25102;-74
2023/12/01 06:41:08;;;;;;;83.00;36.80;;;;;;;;;;4994841;28;25132;-74
2023/12/01 06:43:34;;;;;;;83.28;38.05;;;;;;;;;;4990162;28;25057;-73
2023/12/01 06:46:00;;;;;;;85.40;38.30;;;;;;;;;;5002736;28;25098;-74
2023/12/01 06:48:26;;;;;;;81.60;37.67;;;;;;;;;;5001105;28;25099;-73
2023/12/01 06:50:52;;;;;;;95.10;39.80;;;;;;;;;;4999669;28;25112;-74
2023/12/01 06:53:18;;;;;;;90.18;38.40;;;;;;;;;;5004023;28;25086;-74
2023/12/01 06:55:44;;;;;;;88.95;38.55;;;;;;;;;;5001617;28;25063;-74
2023/12/01 06:58:10;;;;;;;99.10;39.92;;;;;;;;;;4997728;28;25071;-73
2023/12/01 07:00:37;;;;;;;97.30;38.28;;;;;;;;;;5002522;28;25089;-74
2023/12/01 07:03:04;;;;;;;96.05;38.13;;;;;;;;;;5006497;28;25065;-72
2023/12/01 07:05:31;;;;;;;99.25;39.15;;;;;;;;;;4999039;28;25057;-74
2023/12/01 07:07:58;;;;;;;94.60;36.90;;;;;;;;;;4999478;28;25083;-74
2023/12/01 07:10:24;;;;;;;85.53;37.33;;;;;;;;;;4996292;28;25074;-73
2023/12/01 07:12:52;;;;;;;96.45;37.58;;;;;;;;;;4994085;28;25080;-75
2023/12/01 07:15:21;;;;;;;89.72;37.10;;;;;;;;;;4996919;28;25050;-73
2023/12/01 07:17:51;;;;;;;95.15;37.88;;;;;;;;;;4989414;28;25076;-73
2023/12/01 07:20:18;;;;;;;91.13;36.78;;;;;;;;;;4995740;28;25103;-75
2023/12/01 07:22:44;;;;;;;84.15;37.00;;;;;;;;;;4993194;28;25089;-75
2023/12/01 07:25:11;;;;;;;93.97;38.70;;;;;;;;;;4996487;28;25086;-75
2023/12/01 07:27:46;;;;;;;92.97;39.97;;;;;;;;;;4999069;28;25067;-74
2023/12/01 07:30:16;;;;;;;90.40;37.75;;;;;;;;;;4993491;28;25153;-73
2023/12/01 07:32:42;;;;;;;96.75;39.15;;;;;;;;;;4997434;28;25083;-74
2023/12/01 07:35:10;;;;;;;101.32;41.60;;;;;;;;;;5009717;28;25056;-74
2023/12/01 07:37:37;;;;;;;97.32;39.88;;;;;;;;;;5009985;28;25071;-74
2023/12/01 07:40:06;;;;;;;96.85;39.15;;;;;;;;;;5011396;28;25076;-73
2023/12/01 07:42:35;;;;;;;90.57;36.65;;;;;;;;;;5007290;28;25072;-75
2023/12/01 07:45:01;;;;;;;98.38;39.90;;;;;;;;;;4996142;28;25168;-74
2023/12/01 07:47:27;;;;;;;107.38;38.13;;;;;;;;;;4999325;28;25064;-75
2023/12/01 07:49:53;;;;;;;90.05;38.22;;;;;;;;;;4998493;28;25058;-75
2023/12/01 07:52:19;;;;;;;91.28;37.80;;;;;;;;;;4992760;28;25064;-75
2023/12/01 07:54:46;;;;;;;93.32;39.72;;;;;;;;;;4996264;28;25069;-76
2023/12/01 07:57:12;;;;;;;104.32;40.92;;;;;;;;;;4992531;28;25074;-75
2023/12/01 07:59:38;;;;;;;85.28;37.50;;;;;;;;;;4991373;28;25131;-74
2023/12/01 08:02:04;;;;;;;108.18;41.33;;;;;;;;;;4992942;28;25076;-75
2023/12/01 08:04:31;;;;;;;87.85;36.92;;;;;;;;;;4993467;28;25045;-75
2023/12/01 08:06:57;;;;;;;93.28;39.40;;;;;;;;;;4988193;28;25121;-73
2023/12/01 08:09:23;;;;;;;95.38;37.15;;;;;;;;;;4993112;28;25066;-74
2023/12/01 08:11:49;;;;;;;89.30;37.08;;;;;;;;;;4993458;28;25064;-75
2023/12/01 08:14:15;;;;;;;95.60;37.45;;;;;;;;;;4991876;28;25088;-74
2023/12/01 08:16:44;;;;;;;85.50;36.38;;;;;;;;;;4988759;28;25071;-73
2023/12/01 08:19:10;;;;;;;97.25;39.10;;;;;;;;;;4986280;28;25113;-75
2023/12/01 08:21:36;;;;;;;93.55;37.88;;;;;;;;;;4977512;28;25084;-73
2023/12/01 08:24:06;;;;;;;93.07;38.13;;;;;;;;;;4987197;28;25063;-74
2023/12/01 08:26:32;;;;;;;98.70;39.78;;;;;;;;;;4987409;28;25081;-75
2023/12/01 08:28:58;;;;;;;85.63;37.50;;;;;;;;;;4991492;28;25112;-75
2023/12/01 08:31:24;;;;;;;90.90;35.92;;;;;;;;;;4998394;28;25064;-75
2023/12/01 08:33:50;;;;;;;80.00;34.97;;;;;;;;;;4990888;28;25047;-75
2023/12/01 08:36:16;;;;;;;93.38;36.55;;;;;;;;;;4985489;28;25063;-74
2023/12/01 08:38:42;;;;;;;99.63;37.83;;;;;;;;;;4988190;28;25068;-74
2023/12/01 08:41:08;;;;;;;91.97;37.92;;;;;;;;;;4988102;28;25063;-73
2023/12/01 08:43:34;;;;;;;102.90;39.33;;;;;;;;;;4985121;28;25057;-77
2023/12/01 08:46:00;;;;;;;103.63;38.30;;;;;;;;;;4986185;28;25095;-75
2023/12/01 08:48:26;;;;;;;93.53;37.15;;;;;;;;;;4989599;28;25071;-75
2023/12/01 08:50:52;;;;;;;92.28;37.65;;;;;;;;;;4989093;28;25132;-74
2023/12/01 08:53:19;;;;;;;85.45;36.65;;;;;;;;;;4991228;28;25077;-74
2023/12/01 08:55:46;;;;;;;87.43;34.38;;;;;;;;;;4989167;28;25063;-72
2023/12/01 08:58:12;;;;;;;98.28;39.58;;;;;;;;;;4989798;28;25067;-75
2023/12/01 09:00:37;;;;;;;92.20;36.13;;;;;;;;;;4988682;28;25059;-74
2023/12/01 09:03:04;;;;;;;89.70;38.80;;;;;;;;;;4988066;28;25065;-73
2023/12/01 09:05:32;;;;;;;94.57;38.72;;;;;;;;;;4989601;28;25073;-74
2023/12/01 09:07:59;;;;;;;91.15;39.60;;;;;;;;;;4989708;28;25103;-74
2023/12/01 09:10:26;;;;;;;90.55;37.08;;;;;;;;;;4989032;28;25133;-73
2023/12/01 09:12:52;;;;;;;93.82;38.63;;;;;;;;;;4988695;28;25046;-74
2023/12/01 09:15:18;;;;;;;92.25;38.50;;;;;;;;;;4997739;28;25057;-74
2023/12/01 09:17:44;;;;;;;98.95;42.85;;;;;;;;;;4998261;28;25062;-74
2023/12/01 09:20:10;;;;;;;94.22;36.95;;;;;;;;;;4996044;28;25050;-73
2023/12/01 09:22:37;;;;;;;105.07;42.08;;;;;;;;;;4990874;28;25075;-74
2023/12/01 09:25:03;;;;;;;95.97;41.55;;;;;;;;;;4987183;28;25106;-74
2023/12/01 09:27:29;;;;;;;101.25;44.00;;;;;;;;;;4989560;28;25056;-73
2023/12/01 09:29:55;;;;;;;107.20;41.05;;;;;;;;;;4988916;28;25096;-71
2023/12/01 09:32:21;;;;;;;100.50;43.95;;;;;;;;;;4988438;28;25052;-74
2023/12/01 09:34:48;;;;;;;100.97;40.03;;;;;;;;;;4991432;28;25064;-73
2023/12/01 09:37:14;;;;;;;101.57;40.58;;;;;;;;;;4992054;28;25113;-73
2023/12/01 09:39:40;;;;;;;100.93;42.22;;;;;;;;;;4987473;28;26159;-73
2023/12/01 09:42:07;;;;;;;99.93;38.38;;;;;;;;;;4988084;28;25076;-73
2023/12/01 09:44:35;;;;;;;96.30;38.92;;;;;;;;;;4988286;28;25051;-74
2023/12/01 09:47:02;;;;;;;83.32;36.97;;;;;;;;;;4986469;28;25066;-73
2023/12/01 09:49:31;;;;;;;82.55;36.17;;;;;;;;;;4981902;28;25152;-73
2023/12/01 09:51:57;;;;;;;84.07;36.05;;;;;;;;;;4987756;28;25136;-72
2023/12/01 09:54:23;;;;;;;87.50;37.08;;;;;;;;;;4987523;28;25066;-74
2023/12/01 09:56:51;;;;;;;93.25;41.00;;;;;;;;;;4984543;28;25057;-73
2023/12/01 09:59:18;;;;;;;83.50;35.22;;;;;;;;;;4987059;28;25131;-72
2023/12/01 10:01:44;;;;;;;87.10;37.35;;;;;;;;;;4987545;28;25065;-74
2023/12/01 10:04:11;;;;;;;78.60;34.22;;;;;;;;;;4985717;28;25092;-74
2023/12/01 10:06:37;;;;;;;81.05;36.38;;;;;;;;;;4984830;28;25049;-74
2023/12/01 10:09:09;;;;;;;74.75;33.95;;;;;;;;;;4987762;28;25085;-74
2023/12/01 10:11:35;;;;;;;75.28;32.70;;;;;;;;;;4984907;28;25051;-73
2023/12/01 10:14:06;;;;;;;69.93;31.92;;;;;;;;;;4990878;28;25064;-73
2023/12/01 10:16:34;;;;;;;65.40;29.67;;;;;;;;;;4990671;28;25053;-75
2023/12/01 10:19:01;;;;;;;63.92;28.27;;;;;;;;;;4987051;28;25069;-73
2023/12/01 10:21:43;;;;;;;62.45;28.90;;;;;;;;;;4990590;28;25055;-74
2023/12/01 10:24:16;;;;;;;61.55;29.60;;;;;;;;;;4988048;28;25132;-73
2023/12/01 10:26:43;;;;;;;62.40;27.88;;;;;;;;;;4990149;28;25133;-74
2023/12/01 10:29:27;;;;;;;60.55;26.30;;;;;;;;;;4983210;28;25138;-74
2023/12/01 10:31:53;;;;;;;54.63;25.58;;;;;;;;;;4984720;28;25177;-74
2023/12/01 10:34:19;;;;;;;50.28;23.85;;;;;;;;;;4988020;28;25111;-73
2023/12/01 10:36:46;;;;;;;55.55;24.83;;;;;;;;;;4988459;28;25071;-72
2023/12/01 10:39:16;;;;;;;54.38;24.58;;;;;;;;;;4983505;28;25094;-74
2023/12/01 10:41:43;;;;;;;53.92;23.60;;;;;;;;;;4985947;28;25070;-73
2023/12/01 10:44:09;;;;;;;54.10;24.10;;;;;;;;;;4985429;28;25081;-74
2023/12/01 10:46:36;;;;;;;49.78;23.33;;;;;;;;;;4982913;28;25093;-72
2023/12/01 10:49:04;;;;;;;51.22;23.67;;;;;;;;;;4985881;28;25062;-73
2023/12/01 10:51:30;;;;;;;50.50;22.77;;;;;;;;;;4988088;28;25069;-74
2023/12/01 10:53:58;;;;;;;51.60;22.70;;;;;;;;;;4988103;28;25063;-73
2023/12/01 10:56:25;;;;;;;51.03;24.27;;;;;;;;;;4992688;28;25099;-71
2023/12/01 10:58:52;;;;;;;52.25;23.52;;;;;;;;;;4991708;28;25049;-73
2023/12/01 11:01:18;;;;;;;50.15;24.52;;;;;;;;;;4994308;28;25085;-73
2023/12/01 11:03:46;;;;;;;55.08;25.25;;;;;;;;;;4990570;28;25114;-73
2023/12/01 11:06:19;;;;;;;53.22;23.52;;;;;;;;;;4989379;28;25049;-73
2023/12/01 11:09:03;;;;;;;53.38;25.08;;;;;;;;;;4984186;28;25088;-73
2023/12/01 11:11:40;;;;;;;51.33;23.85;;;;;;;;;;4987362;28;25149;-74
2023/12/01 11:14:20;;;;;;;52.92;23.65;;;;;;;;;;4987128;28;25134;-73
2023/12/01 11:16:50;;;;;;;51.97;24.65;;;;;;;;;;4997107;28;25071;-73
2023/12/01 11:19:17;;;;;;;50.85;24.08;;;;;;;;;;4988103;28;25074;-73
2023/12/01 11:21:43;;;;;;;54.28;26.38;;;;;;;;;;4986696;28;25137;-73
2023/12/01 11:24:31;;;;;;;51.78;25.10;;;;;;;;;;4991170;28;25074;-73
2023/12/01 11:27:00;;;;;;;49.85;22.10;;;;;;;;;;4989921;28;25067;-72
2023/12/01 11:29:32;;;;;;;54.05;26.42;;;;;;;;;;4983781;28;25059;-74
2023/12/01 11:31:58;;;;;;;46.53;22.20;;;;;;;;;;4989262;28;25123;-73
2023/12/01 11:34:28;;;;;;;48.75;23.58;;;;;;;;;;4998234;28;25054;-74
2023/12/01 11:36:54;;;;;;;48.00;23.23;;;;;;;;;;4984498;28;25066;-73
2023/12/01 11:39:26;;;;;;;44.50;20.83;;;;;;;;;;4982624;28;25064;-74
2023/12/01 11:41:53;;;;;;;;;;;;;;;;;;4984240;28;25087;-74
2023/12/01 11:44:25;;;;;;;43.58;21.10;;;;;;;;;;4985772;28;24067;-75
2023/12/01 11:46:58;;;;;;;47.40;24.08;;;;;;;;;;4983281;28;25055;-73
2023/12/01 11:49:27;;;;;;;45.22;21.27;;;;;;;;;;4985251;28;25094;-74
2023/12/01 11:51:54;;;;;;;45.20;21.58;;;;;;;;;;4987491;28;25061;-73
2023/12/01 11:54:20;;;;;;;41.88;21.80;;;;;;;;;;4989767;28;25073;-72
2023/12/01 11:56:53;;;;;;;47.38;22.13;;;;;;;;;;4995072;28;25092;-74
2023/12/01 11:59:19;;;;;;;;;;;;;;;;;;4994237;28;25149;-71
2023/12/01 12:01:45;;;;;;;46.55;21.83;;;;;;;;;;4986543;28;25066;-72
2023/12/01 12:04:16;;;;;;;43.78;21.35;;;;;;;;;;4983284;28;25076;-72
2023/12/01 12:06:43;;;;;;;46.45;23.02;;;;;;;;;;4986084;28;25110;-72
2023/12/01 12:09:10;;;;;;;44.90;21.52;;;;;;;;;;4984936;28;25081;-73
2023/12/01 12:11:36;;;;;;;42.30;21.83;;;;;;;;;;4983569;28;25053;-74
2023/12/01 12:14:03;;;;;;;44.70;22.23;;;;;;;;;;4984944;28;25043;-73
2023/12/01 12:16:29;;;;;;;43.50;20.92;;;;;;;;;;4987673;28;25060;-74
2023/12/01 12:18:59;;;;;;;47.28;22.20;;;;;;;;;;4983336;28;25068;-74
2023/12/01 12:21:25;;;;;;;41.50;21.20;;;;;;;;;;4984123;28;25111;-72
2023/12/01 12:23:51;;;;;;;45.95;21.23;;;;;;;;;;4979078;28;25064;-74
2023/12/01 12:26:22;;;;;;;47.22;22.83;;;;;;;;;;4979745;28;25080;-75
2023/12/01 12:28:50;;;;;;;48.22;22.95;;;;;;;;;;4985820;28;25056;-74
2023/12/01 12:31:16;;;;;;;51.85;22.27;;;;;;;;;;4988227;28;25070;-74
2023/12/01 12:33:42;;;;;;;45.75;23.55;;;;;;;;;;4985161;28;25057;-73
2023/12/01 12:36:08;;;;;;;43.90;22.25;;;;;;;;;;4983575;28;25074;-72
2023/12/01 12:38:34;;;;;;;39.03;20.90;;;;;;;;;;4983418;28;25067;-73
2023/12/01 12:41:04;;;;;;;49.80;22.77;;;;;;;;;;4984148;28;25147;-73
2023/12/01 12:43:31;;;;;;;41.70;20.90;;;;;;;;;;4988256;28;25071;-74
2023/12/01 12:45:59;;;;;;;45.47;21.08;;;;;;;;;;4987076;28;25079;-72
2023/12/01 12:48:27;;;;;;;40.17;19.17;;;;;;;;;;4987014;28;25134;-72
2023/12/01 12:50:53;;;;;;;45.45;20.63;;;;;;;;;;4984135;28;25083;-73
2023/12/01 12:53:19;;;;;;;45.95;21.52;;;;;;;;;;4985217;28;25074;-73
2023/12/01 12:55:46;;;;;;;40.40;18.80;;;;;;;;;;4982366;28;25083;-73
2023/12/01 12:58:11;;;;;;;37.72;19.02;;;;;;;;;;4985602;28;25107;-73
2023/12/01 13:00:40;;;;;;;37.00;18.27;;;;;;;;;;4983852;28;25084;-76
2023/12/01 13:03:06;;;;;;;36.70;18.65;;;;;;;;;;4985465;28;25053;-73
2023/12/01 13:05:32;;;;;;;37.67;18.33;;;;;;;;;;4985346;28;25154;-74
2023/12/01 13:07:58;;;;;;;37.22;19.10;;;;;;;;;;4985197;28;25136;-72
2023/12/01 13:10:24;;;;;;;37.47;18.52;;;;;;;;;;4983552;28;25050;-73
2023/12/01 13:12:50;;;;;;;35.90;17.35;;;;;;;;;;4986295;28;25073;-73
2023/12/01 13:15:16;;;;;;;41.30;19.95;;;;;;;;;;4985740;28;25078;-73
2023/12/01 13:17:42;;;;;;;36.63;17.63;;;;;;;;;;4984682;28;25070;-74
2023/12/01 13:20:08;;;;;;;34.30;17.75;;;;;;;;;;4982357;28;25073;-73
2023/12/01 13:22:34;;;;;;;33.65;16.95;;;;;;;;;;4984650;28;25156;-74
2023/12/01 13:25:02;;;;;;;41.40;19.33;;;;;;;;;;4987229;28;25081;-73
2023/12/01 13:27:28;;;;;;;32.88;18.05;;;;;;;;;;4988100;28;25097;-74
2023/12/01 13:29:54;;;;;;;37.70;18.48;;;;;;;;;;4990480;28;25096;-74
2023/12/01 13:32:20;;;;;;;36.28;18.60;;;;;;;;;;4989037;28;25135;-73
2023/12/01 13:34:46;;;;;;;33.53;17.35;;;;;;;;;;4988291;28;25039;-74
2023/12/01 13:37:13;;;;;;;34.67;17.13;;;;;;;;;;4987568;28;25160;-74
2023/12/01 13:39:39;;;;;;;29.63;15.93;;;;;;;;;;4989883;28;25086;-74
2023/12/01 13:42:07;;;;;;;38.50;17.42;;;;;;;;;;4988960;28;25143;-74
2023/12/01 13:44:33;;;;;;;40.22;18.70;;;;;;;;;;4986305;28;25163;-74
2023/12/01 13:46:59;;;;;;;34.42;18.40;;;;;;;;;;4987526;28;25131;-72
2023/12/01 13:49:25;;;;;;;34.67;17.35;;;;;;;;;;4990158;28;25068;-74
2023/12/01 13:51:51;;;;;;;29.95;16.30;;;;;;;;;;4989313;28;25129;-72
2023/12/01 13:54:17;;;;;;;36.13;17.77;;;;;;;;;;4987652;28;25151;-74
2023/12/01 13:56:43;;;;;;;34.10;17.23;;;;;;;;;;4988375;28;25203;-73
2023/12/01 13:59:09;;;;;;;32.85;17.48;;;;;;;;;;4987705;28;25087;-74
2023/12/01 14:01:35;;;;;;;36.00;18.52;;;;;;;;;;4986197;28;25067;-72
2023/12/01 14:04:01;;;;;;;31.65;17.75;;;;;;;;;;4987012;28;25139;-73
2023/12/01 14:06:27;;;;;;;32.10;16.88;;;;;;;;;;4986817;28;25178;-73
2023/12/01 14:08:53;;;;;;;33.67;17.00;;;;;;;;;;4988002;28;25074;-73
2023/12/01 14:11:19;;;;;;;35.35;17.27;;;;;;;;;;4987218;28;25067;-71
2023/12/01 14:13:45;;;;;;;35.60;18.17;;;;;;;;;;4986550;28;25073;-74